Time;durP1;ratioP1;P1;durP2;ratioP2;P2;SDS_P1;SDS_P2;PMS_P1;PMS_P2;Temp;Humidity;BMP_temperature;BMP_pressure;BME280_temperature;BME280_humidity;BME280_pressure;Samples;Min_cycle;Max_cycle;Signal;HPM_P1;HPM_P2
2022/12/03 00:01:06;;;;;;;28.38;15.98;;;;;;;3.86;63.81;100581.50;5017524;28;20081;-79
2022/12/03 00:03:34;;;;;;;28.70;16.67;;;;;;;3.85;64.17;100577.19;5030482;28;20168;-79
2022/12/03 00:06:01;;;;;;;31.55;16.90;;;;;;;3.84;64.07;100578.91;5012525;28;20144;-79
2022/12/03 00:08:27;;;;;;;31.65;17.05;;;;;;;3.84;64.10;100578.03;5030011;28;20077;-79
2022/12/03 00:10:53;;;;;;;25.88;15.60;;;;;;;3.81;63.69;100581.56;5030068;28;20140;-79
2022/12/03 00:13:20;;;;;;;28.98;17.20;;;;;;;3.80;63.87;100576.38;5029941;28;20111;-80
2022/12/03 00:15:46;;;;;;;28.23;16.58;;;;;;;3.78;63.77;100576.41;5030150;28;20076;-80
2022/12/03 00:18:12;;;;;;;28.15;16.63;;;;;;;3.76;64.10;100571.22;5030186;28;20053;-79
2022/12/03 00:20:39;;;;;;;24.95;15.32;;;;;;;3.75;63.50;100574.72;5030269;28;20096;-79
2022/12/03 00:23:05;;;;;;;32.05;18.05;;;;;;;3.74;63.64;100578.19;5030213;28;20053;-79
2022/12/03 00:25:32;;;;;;;30.30;16.55;;;;;;;3.72;63.92;100573.91;5030057;28;20076;-80
2022/12/03 00:27:58;;;;;;;29.27;15.90;;;;;;;3.71;64.01;100573.06;5029615;28;20496;-80
2022/12/03 00:30:24;;;;;;;30.23;17.05;;;;;;;3.71;63.82;100569.56;5030244;28;20054;-79
2022/12/03 00:32:51;;;;;;;29.00;16.38;;;;;;;3.71;63.98;100565.25;5030026;28;20050;-79
2022/12/03 00:35:17;;;;;;;32.63;17.98;;;;;;;3.70;63.80;100560.88;5029881;28;20475;-80
2022/12/03 00:37:43;;;;;;;33.15;17.52;;;;;;;3.70;64.02;100563.50;5029891;28;20123;-80
2022/12/03 00:40:10;;;;;;;30.70;17.65;;;;;;;3.70;64.16;100566.09;5030074;28;20057;-80
2022/12/03 00:42:37;;;;;;;27.33;15.82;;;;;;;3.70;63.87;100571.31;5029633;28;20077;-80
2022/12/03 00:45:03;;;;;;;29.70;16.42;;;;;;;3.69;63.93;100564.38;5029810;28;20050;-80
2022/12/03 00:47:30;;;;;;;30.38;16.80;;;;;;;3.69;64.14;100561.78;5029694;28;20049;-80
2022/12/03 00:49:56;;;;;;;34.28;18.92;;;;;;;3.69;63.95;100568.72;5029970;28;20123;-80
2022/12/03 00:52:23;;;;;;;29.73;16.48;;;;;;;3.68;63.80;100562.69;5012006;28;20085;-80
2022/12/03 00:54:49;;;;;;;33.83;18.48;;;;;;;3.67;63.93;100570.50;5029615;28;20049;-79
2022/12/03 00:57:16;;;;;;;30.20;17.25;;;;;;;3.66;63.77;100564.41;5029672;28;20058;-80
2022/12/03 00:59:42;;;;;;;27.48;16.70;;;;;;;3.64;63.93;100563.59;5033325;28;20081;-79
2022/12/03 01:02:08;;;;;;;30.83;17.20;;;;;;;3.61;64.12;100564.50;5033823;28;20128;-80
2022/12/03 01:04:35;;;;;;;35.47;18.00;;;;;;;3.60;64.36;100567.13;5016020;28;20057;-80
2022/12/03 01:07:01;;;;;;;34.78;18.15;;;;;;;3.59;64.21;100573.22;5033480;28;20127;-80
2022/12/03 01:09:28;;;;;;;33.28;18.27;;;;;;;3.59;64.00;100571.47;5033462;28;20077;-80
2022/12/03 01:11:54;;;;;;;32.33;17.95;;;;;;;3.60;64.16;100574.94;5033107;28;20503;-79
2022/12/03 01:14:20;;;;;;;31.42;17.38;;;;;;;3.60;64.26;100578.41;5033359;28;20511;-80
2022/12/03 01:16:47;;;;;;;35.70;17.60;;;;;;;3.61;64.58;100584.47;5033259;28;20061;-80
2022/12/03 01:19:15;;;;;;;30.15;16.98;;;;;;;3.62;64.15;100578.38;5033196;28;20049;-80
2022/12/03 01:21:43;;;;;;;30.38;16.67;;;;;;;3.63;64.19;100575.75;5033697;28;20544;-79
2022/12/03 01:24:10;;;;;;;32.17;17.13;;;;;;;3.63;64.46;100580.13;5033072;28;20100;-80
2022/12/03 01:26:37;;;;;;;33.15;17.95;;;;;;;3.64;64.35;100581.81;5032915;28;20132;-79
2022/12/03 01:29:04;;;;;;;33.55;17.58;;;;;;;3.64;64.24;100577.50;5033293;28;20416;-80
2022/12/03 01:34:15;;;;;;;34.03;17.90;;;;;;;3.67;64.38;100580.91;5033110;28;20064;-79
2022/12/03 01:36:41;;;;;;;35.65;17.95;;;;;;;3.66;64.48;100580.03;5032757;28;20132;-79
2022/12/03 01:39:08;;;;;;;31.33;17.95;;;;;;;3.68;64.68;100580.91;5015464;28;20133;-79
2022/12/03 01:41:35;;;;;;;35.88;18.63;;;;;;;3.68;64.66;100583.50;5032978;28;20061;-80
2022/12/03 01:44:14;;;;;;;34.05;18.92;;;;;;;3.67;64.40;100566.16;5015357;28;20103;-80
2022/12/03 01:46:40;;;;;;;34.80;18.20;;;;;;;3.69;64.16;100566.13;5015212;28;20145;-79
2022/12/03 01:49:15;;;;;;;38.88;18.52;;;;;;;3.66;64.60;100574.84;5032683;28;20084;-79
2022/12/03 01:51:42;;;;;;;35.75;18.38;;;;;;;3.69;64.26;100561.78;5032814;28;20084;-79
2022/12/03 01:54:21;;;;;;;34.58;18.00;;;;;;;3.67;64.58;100576.59;5032837;28;20111;-79
2022/12/03 01:56:48;;;;;;;31.05;16.70;;;;;;;3.68;64.14;100570.50;5032445;28;20059;-80
2022/12/03 01:59:16;;;;;;;25.90;14.95;;;;;;;3.68;64.22;100569.63;5032785;28;20057;-80
2022/12/03 02:01:43;;;;;;;32.67;16.38;;;;;;;3.66;64.05;100572.25;5032282;28;20104;-80
2022/12/03 02:04:18;;;;;;;32.15;15.82;;;;;;;3.61;63.82;100577.53;5014876;28;20538;-79
2022/12/03 02:06:45;;;;;;;28.80;15.75;;;;;;;3.60;64.26;100569.75;5032077;28;20062;-79
2022/12/03 02:09:12;;;;;;;29.92;15.95;;;;;;;3.57;64.27;100570.66;5031926;28;20481;-79
2022/12/03 02:11:45;;;;;;;31.67;16.05;;;;;;;3.54;64.53;100569.84;5031305;28;20081;-80
2022/12/03 02:14:18;;;;;;;28.52;15.30;;;;;;;3.51;64.20;100579.41;5032158;28;20199;-79
2022/12/03 02:16:45;;;;;;;29.75;15.38;;;;;;;3.50;64.40;100572.47;5031873;28;20472;-79
2022/12/03 02:19:25;;;;;;;25.85;14.70;;;;;;;3.47;64.71;100572.50;5032135;28;20061;-80
2022/12/03 02:22:03;;;;;;;34.90;16.35;;;;;;;3.49;64.77;100572.50;5032029;28;20589;-79
2022/12/03 02:24:53;;;;;;;31.65;15.95;;;;;;;3.45;64.93;100571.69;5031904;28;20094;-79
2022/12/03 02:27:21;;;;;;;33.15;16.35;;;;;;;3.48;64.46;100566.41;5031758;28;20064;-79
2022/12/03 02:29:47;;;;;;;31.35;17.27;;;;;;;3.46;64.85;100572.53;5031904;28;20089;-79
2022/12/03 02:32:14;;;;;;;34.10;17.38;;;;;;;3.46;64.81;100562.13;5031675;28;20480;-79
2022/12/03 02:34:43;;;;;;;39.33;19.42;;;;;;;3.46;64.65;100568.19;5031825;28;20057;-79
2022/12/03 02:37:17;;;;;;;38.75;18.58;;;;;;;3.44;65.22;100566.50;5031484;28;20096;-79
2022/12/03 02:39:50;;;;;;;34.15;17.02;;;;;;;3.44;65.03;100566.50;5032288;28;20463;-79
2022/12/03 02:42:36;;;;;;;40.80;18.95;;;;;;;3.44;64.44;100559.53;5031536;28;20049;-79
2022/12/03 02:45:08;;;;;;;40.58;17.67;;;;;;;3.41;64.87;100564.81;5031600;28;20093;-79
2022/12/03 02:47:48;;;;;;;41.92;20.50;;;;;;;3.41;65.27;100569.13;5013706;28;20096;-80
2022/12/03 02:50:19;;;;;;;48.72;20.80;;;;;;;3.41;64.77;100563.94;5031781;28;20057;-79
2022/12/03 02:52:54;;;;;;;44.40;20.33;;;;;;;3.36;65.03;100559.66;5031306;28;20084;-81
2022/12/03 02:55:21;;;;;;;47.67;21.20;;;;;;;3.38;64.99;100564.84;5031302;28;20115;-79
2022/12/03 02:57:49;;;;;;;44.83;20.85;;;;;;;3.37;64.74;100565.72;5031227;28;20141;-79
2022/12/03 03:00:17;;;;;;;43.60;20.98;;;;;;;3.36;65.36;100562.25;5031186;28;20061;-79
2022/12/03 03:02:45;;;;;;;46.70;22.13;;;;;;;3.35;65.42;100570.06;5031322;28;20136;-79
2022/12/03 03:05:14;;;;;;;54.33;23.08;;;;;;;3.35;64.85;100565.75;5031149;28;20144;-79
2022/12/03 03:07:41;;;;;;;47.63;22.58;;;;;;;3.36;65.12;100564.00;5013389;28;20053;-79
2022/12/03 03:10:13;;;;;;;48.13;21.95;;;;;;;3.34;65.22;100558.84;5031021;28;20107;-79
2022/12/03 03:12:39;;;;;;;49.13;23.30;;;;;;;3.35;65.36;100564.88;5030805;28;20053;-79
2022/12/03 03:15:08;;;;;;;50.15;22.77;;;;;;;3.33;65.28;100562.28;5031061;28;20103;-79
2022/12/03 03:17:34;;;;;;;49.40;23.88;;;;;;;3.34;65.40;100563.16;5030790;28;20149;-79
2022/12/03 03:20:03;;;;;;;54.00;22.33;;;;;;;3.34;65.37;100553.63;5031089;28;20053;-79
2022/12/03 03:22:37;;;;;;;51.38;22.92;;;;;;;3.33;65.03;100551.03;5030670;28;20107;-79
2022/12/03 03:25:06;;;;;;;49.58;23.05;;;;;;;3.34;65.05;100552.75;5030575;28;20123;-79
2022/12/03 03:27:32;;;;;;;54.83;24.58;;;;;;;3.33;64.97;100549.28;5030651;28;20077;-79
2022/12/03 03:29:59;;;;;;;58.10;25.48;;;;;;;3.34;65.02;100550.16;5030805;28;20483;-79
2022/12/03 03:32:27;;;;;;;51.15;23.63;;;;;;;3.33;65.06;100548.44;5030579;28;20091;-80
2022/12/03 03:34:55;;;;;;;54.17;24.02;;;;;;;3.30;65.45;100544.13;5012855;28;20107;-79
2022/12/03 03:37:22;;;;;;;52.08;24.10;;;;;;;3.30;65.30;100545.88;5030326;28;20071;-79
2022/12/03 03:39:49;;;;;;;53.30;24.27;;;;;;;3.28;65.02;100543.28;5030331;28;20128;-79
2022/12/03 03:42:15;;;;;;;56.20;24.73;;;;;;;3.29;64.69;100546.75;5030481;28;20110;-80
2022/12/03 03:44:42;;;;;;;52.17;23.80;;;;;;;3.28;64.81;100540.69;5030240;28;20499;-79
2022/12/03 03:47:09;;;;;;;54.20;23.83;;;;;;;3.26;65.12;100540.69;5012518;28;20049;-79
2022/12/03 03:49:35;;;;;;;57.67;24.45;;;;;;;3.27;64.88;100544.16;5012559;28;20111;-79
2022/12/03 03:52:02;;;;;;;43.85;21.98;;;;;;;3.25;65.06;100533.78;5029916;28;20545;-80
2022/12/03 03:54:29;;;;;;;51.40;22.85;;;;;;;3.24;64.75;100537.28;5030332;28;20103;-80
2022/12/03 03:56:56;;;;;;;49.05;23.73;;;;;;;3.23;64.66;100532.09;5030064;28;20057;-80
2022/12/03 03:59:22;;;;;;;47.30;23.50;;;;;;;3.22;65.08;100533.81;5030276;28;20058;-80
2022/12/03 04:01:49;;;;;;;49.50;23.00;;;;;;;3.22;65.03;100530.38;5030493;28;20077;-80
2022/12/03 04:04:20;;;;;;;50.05;23.30;;;;;;;3.18;64.62;100529.53;5030071;28;20081;-80
2022/12/03 04:06:47;;;;;;;46.78;21.83;;;;;;;3.19;65.12;100528.69;5029660;28;20454;-80
2022/12/03 04:09:14;;;;;;;45.35;20.95;;;;;;;3.19;64.77;100525.19;5030168;28;20140;-80
2022/12/03 04:14:25;;;;;;;45.63;21.45;;;;;;;3.21;64.87;100528.66;5029948;28;20107;-80
2022/12/03 04:16:51;;;;;;;46.60;23.25;;;;;;;3.19;64.71;100531.28;5029579;28;20530;-80
2022/12/03 04:19:18;;;;;;;50.65;22.90;;;;;;;3.20;64.74;100532.13;5029777;28;20072;-79
2022/12/03 04:24:29;;;;;;;51.00;23.35;;;;;;;3.21;65.05;100526.91;5029628;28;20470;-80
2022/12/03 04:29:40;;;;;;;58.00;24.73;;;;;;;3.20;64.89;100535.59;5029471;28;20057;-79
2022/12/03 04:37:36;;;;;;;54.28;23.48;;;;;;;3.20;64.94;100532.13;5036657;28;20335;-80
2022/12/03 04:40:59;;;;;;;61.63;25.10;;;;;;;3.19;64.77;100536.47;5036066;28;20196;-80
2022/12/03 04:42:49;;;;;;;61.60;26.48;;;;;;;3.19;64.89;100536.47;5036234;28;20088;-80
2022/12/03 04:45:16;;;;;;;63.50;26.35;;;;;;;3.17;64.86;100540.84;5036101;28;20497;-80
2022/12/03 04:47:42;;;;;;;58.13;25.08;;;;;;;3.16;64.63;100533.03;5036082;28;20140;-80
2022/12/03 04:50:09;;;;;;;65.03;26.08;;;;;;;3.15;64.89;100531.34;5036252;28;20053;-80
2022/12/03 04:52:35;;;;;;;56.33;24.02;;;;;;;3.14;65.15;100535.66;5035803;28;20085;-80
2022/12/03 04:55:02;;;;;;;63.50;24.95;;;;;;;3.14;65.11;100543.47;5036247;28;20089;-80
2022/12/03 04:57:28;;;;;;;64.00;24.17;;;;;;;3.12;64.81;100538.31;5036174;28;20077;-80
2022/12/03 04:59:55;;;;;;;57.70;24.60;;;;;;;3.13;64.78;100531.34;5036171;28;20107;-81
2022/12/03 05:02:21;;;;;;;64.28;24.70;;;;;;;3.11;65.03;100533.13;5018514;28;20111;-80
2022/12/03 05:04:48;;;;;;;57.30;24.33;;;;;;;3.10;64.81;100534.00;5035873;28;20064;-80
2022/12/03 05:07:14;;;;;;;59.72;23.83;;;;;;;3.09;65.29;100538.34;5035747;28;20095;-79
2022/12/03 05:09:40;;;;;;;62.42;24.25;;;;;;;3.09;64.85;100535.75;5036241;28;20091;-79
2022/12/03 05:12:06;;;;;;;49.22;21.52;;;;;;;3.09;65.02;100538.34;5035917;28;20085;-80
2022/12/03 05:14:33;;;;;;;47.25;20.40;;;;;;;3.10;64.84;100539.22;5018373;28;20107;-81
2022/12/03 05:16:59;;;;;;;43.58;21.55;;;;;;;3.09;64.87;100532.28;5035738;28;20513;-80
2022/12/03 05:20:40;;;;;;;51.47;21.90;;;;;;;3.07;64.58;100532.28;5018252;28;20080;-80
2022/12/03 05:22:12;;;;;;;48.03;21.05;;;;;;;3.04;64.57;100531.47;5035946;28;20049;-80
2022/12/03 05:24:39;;;;;;;47.33;20.52;;;;;;;3.03;64.34;100537.56;5035944;28;20088;-79
2022/12/03 05:27:05;;;;;;;45.42;20.67;;;;;;;3.00;64.84;100533.28;5035703;28;20119;-79
2022/12/03 05:29:31;;;;;;;46.90;21.63;;;;;;;2.99;64.75;100523.75;5035822;28;20147;-79
2022/12/03 05:31:58;;;;;;;49.78;20.77;;;;;;;2.98;64.77;100530.69;5035654;28;20057;-81
2022/12/03 05:34:24;;;;;;;46.13;20.67;;;;;;;2.99;64.81;100528.94;5036165;28;20133;-80
2022/12/03 05:36:50;;;;;;;46.45;21.05;;;;;;;2.99;64.56;100527.19;5035579;28;20053;-80
2022/12/03 05:39:16;;;;;;;38.90;19.02;;;;;;;3.00;64.96;100528.91;5035625;28;20526;-80
2022/12/03 05:44:28;;;;;;;41.17;19.63;;;;;;;3.01;64.86;100527.19;5033817;28;20504;-80
2022/12/03 05:46:54;;;;;;;36.83;18.05;;;;;;;3.02;64.58;100531.50;5032468;28;20339;-80
2022/12/03 05:49:20;;;;;;;35.20;16.50;;;;;;;3.04;64.63;100518.47;5032705;28;20148;-81
2022/12/03 05:54:22;;;;;;;33.35;16.02;;;;;;;3.00;64.53;100515.06;5113568;22;20057;-87
2022/12/03 05:56:48;;;;;;;33.83;15.82;;;;;;;2.99;64.46;100513.34;5034900;28;20114;-86
2022/12/03 05:59:15;;;;;;;31.80;14.90;;;;;;;2.94;64.55;100508.19;5035372;28;20132;-82
2022/12/03 06:01:41;;;;;;;29.98;15.15;;;;;;;2.90;64.74;100501.31;5035396;28;20095;-86
2022/12/03 06:04:08;;;;;;;28.45;13.07;;;;;;;2.89;64.27;100511.72;5052637;28;20084;-86
2022/12/03 06:06:34;;;;;;;28.42;13.52;;;;;;;2.85;64.46;100513.50;5052731;28;20143;-86
2022/12/03 06:09:01;;;;;;;27.80;12.85;;;;;;;2.82;64.35;100509.22;5035195;28;20053;-87
2022/12/03 06:11:29;;;;;;;26.73;13.48;;;;;;;2.79;64.70;100506.66;5035239;28;20056;-84
2022/12/03 06:13:55;;;;;;;27.95;12.90;;;;;;;2.78;64.38;100509.25;5052727;28;20059;-87
2022/12/03 06:16:21;;;;;;;31.30;14.55;;;;;;;2.77;65.02;100504.94;5052610;28;20053;-87
2022/12/03 06:18:48;;;;;;;29.38;13.20;;;;;;;2.74;65.11;100506.69;5052425;28;20096;-86
2022/12/03 06:21:15;;;;;;;29.02;12.82;;;;;;;2.76;64.44;100508.44;5052680;28;20099;-86
2022/12/03 06:23:43;;;;;;;29.20;13.57;;;;;;;2.74;65.09;100511.91;5052546;28;20053;-86
2022/12/03 06:26:11;;;;;;;29.42;14.38;;;;;;;2.73;64.73;100506.75;5052665;28;20140;-87
2022/12/03 06:28:37;;;;;;;26.10;13.23;;;;;;;2.73;65.12;100515.38;5052450;28;20053;-87
2022/12/03 06:31:04;;;;;;;31.23;13.68;;;;;;;2.72;64.57;100511.06;5052440;28;20476;-87
2022/12/03 06:33:31;;;;;;;29.30;14.20;;;;;;;2.72;65.05;100502.41;5052519;28;20075;-85
2022/12/03 06:35:57;;;;;;;30.83;14.38;;;;;;;2.73;65.03;100499.78;5052299;28;20068;-86
2022/12/03 06:38:23;;;;;;;33.00;14.35;;;;;;;2.74;64.46;100503.25;5052454;28;20048;-86
2022/12/03 06:40:50;;;;;;;32.15;14.93;;;;;;;2.73;64.91;100504.13;5052283;28;20053;-87
2022/12/03 06:43:16;;;;;;;29.95;14.45;;;;;;;2.73;65.33;100499.78;5051717;28;20440;-86
2022/12/03 06:45:43;;;;;;;35.40;15.32;;;;;;;2.74;65.37;100498.06;5054826;28;20057;-87
2022/12/03 06:48:14;;;;;;;32.63;15.15;;;;;;;2.73;64.97;100504.97;5052072;28;20087;-87
2022/12/03 06:50:40;;;;;;;40.22;16.50;;;;;;;2.73;64.97;100499.78;5051664;28;20498;-87
2022/12/03 06:53:07;;;;;;;37.53;18.02;;;;;;;2.73;64.82;100501.53;5051861;28;20075;-86
2022/12/03 06:55:33;;;;;;;42.63;18.25;;;;;;;2.73;64.52;100496.34;5051755;28;20064;-86
2022/12/03 06:58:00;;;;;;;36.80;17.13;;;;;;;2.72;64.58;100497.19;5052171;28;20531;-87
2022/12/03 07:00:26;;;;;;;38.80;16.92;;;;;;;2.71;65.11;100498.97;5051612;28;20052;-86
2022/12/03 07:02:52;;;;;;;42.58;17.10;;;;;;;2.71;65.08;100488.56;5064796;28;20079;-87
2022/12/03 07:05:19;;;;;;;38.10;17.50;;;;;;;2.71;65.08;100492.88;5071622;28;20144;-87
2022/12/03 07:07:50;;;;;;;38.35;17.48;;;;;;;2.71;65.05;100491.16;5057612;28;20063;-87
2022/12/03 07:10:18;;;;;;;37.22;18.63;;;;;;;2.70;64.87;100499.81;5033585;28;20516;-82
2022/12/03 07:12:44;;;;;;;39.75;17.98;;;;;;;2.69;64.72;100499.84;5048881;28;20140;-86
2022/12/03 07:15:11;;;;;;;45.95;18.85;;;;;;;2.68;64.77;100498.09;5050063;28;20064;-83
2022/12/03 07:17:38;;;;;;;42.40;19.75;;;;;;;2.66;65.09;100498.16;5051039;28;20053;-82
2022/12/03 07:20:05;;;;;;;44.08;19.98;;;;;;;2.65;64.88;100501.63;5051513;28;20103;-80
2022/12/03 07:22:32;;;;;;;45.65;21.05;;;;;;;2.63;64.73;100505.97;5051165;28;20067;-83
2022/12/03 07:24:58;;;;;;;46.67;20.13;;;;;;;2.63;64.56;100505.97;5050356;28;20057;-83
2022/12/03 07:27:25;;;;;;;43.92;19.50;;;;;;;2.62;65.13;100499.06;5050415;28;20060;-84
2022/12/03 07:29:51;;;;;;;43.92;20.85;;;;;;;2.62;64.69;100503.41;5050545;28;20060;-81
2022/12/03 07:32:18;;;;;;;44.13;18.67;;;;;;;2.60;64.81;100511.22;5051318;28;20057;-83
2022/12/03 07:34:44;;;;;;;43.10;19.50;;;;;;;2.57;64.88;100506.91;5033307;28;20052;-83
2022/12/03 07:37:11;;;;;;;43.30;18.52;;;;;;;2.55;65.00;100506.06;5050130;28;20524;-84
2022/12/03 07:39:37;;;;;;;41.63;18.95;;;;;;;2.55;65.03;100506.06;5051122;28;20049;-83
2022/12/03 07:42:04;;;;;;;44.03;18.55;;;;;;;2.55;65.23;100505.22;5050898;28;20053;-83
2022/12/03 07:44:30;;;;;;;38.70;18.60;;;;;;;2.54;64.84;100513.88;5051188;28;20092;-82
2022/12/03 07:46:57;;;;;;;40.67;19.17;;;;;;;2.54;64.88;100512.13;5050920;28;20052;-84
2022/12/03 07:49:25;;;;;;;45.45;19.35;;;;;;;2.53;64.79;100506.94;5051042;28;20052;-83
2022/12/03 07:51:55;;;;;;;41.50;18.25;;;;;;;2.52;65.48;100508.72;5050771;28;20053;-83
2022/12/03 07:54:23;;;;;;;43.20;18.33;;;;;;;2.51;64.87;100511.31;5032348;28;20049;-83
2022/12/03 07:56:49;;;;;;;43.40;18.50;;;;;;;2.52;64.97;100505.25;5049176;28;20052;-84
2022/12/03 07:59:17;;;;;;;39.85;18.58;;;;;;;2.51;64.97;100507.00;5049922;28;20067;-84
2022/12/03 08:01:44;;;;;;;45.92;18.73;;;;;;;2.52;65.43;100505.25;5049705;28;20052;-83
2022/12/03 08:04:13;;;;;;;46.40;19.85;;;;;;;2.52;65.52;100510.44;5049808;28;20135;-81
2022/12/03 08:06:40;;;;;;;42.13;18.23;;;;;;;2.51;65.13;100508.72;5049433;28;20049;-83
2022/12/03 08:09:07;;;;;;;40.17;17.83;;;;;;;2.52;65.37;100505.25;5049168;28;20067;-83
2022/12/03 08:11:41;;;;;;;38.50;16.02;;;;;;;2.52;65.16;100502.63;5050904;28;20045;-82
2022/12/03 08:14:16;;;;;;;37.22;16.85;;;;;;;2.51;64.95;100500.91;5050723;28;20052;-82
2022/12/03 08:16:44;;;;;;;38.13;16.83;;;;;;;2.55;65.74;100505.22;5032752;28;20052;-83
2022/12/03 08:19:15;;;;;;;38.25;17.25;;;;;;;2.56;65.62;100504.31;5050677;28;20056;-84
2022/12/03 08:21:42;;;;;;;36.22;16.35;;;;;;;2.58;65.54;100502.59;5032683;28;20055;-83
2022/12/03 08:24:17;;;;;;;39.08;17.52;;;;;;;2.59;65.29;100501.69;5050675;28;20063;-83
2022/12/03 08:26:46;;;;;;;39.63;17.00;;;;;;;2.62;65.43;100500.78;5032808;28;20053;-83
2022/12/03 08:29:17;;;;;;;40.00;16.98;;;;;;;2.61;65.35;100497.31;5050440;28;20103;-82
2022/12/03 08:31:50;;;;;;;38.03;16.27;;;;;;;2.60;65.04;100488.69;5049953;28;20049;-83
2022/12/03 08:34:26;;;;;;;36.55;16.55;;;;;;;2.60;64.81;100495.63;5031463;28;20060;-82
2022/12/03 08:37:04;;;;;;;36.92;17.25;;;;;;;2.58;64.87;100499.97;5049748;28;20057;-81
2022/12/03 08:39:34;;;;;;;37.67;17.00;;;;;;;2.57;64.89;100499.13;5050050;28;20153;-81
2022/12/03 08:45:19;;;;;;;39.97;16.73;;;;;;;2.51;64.58;100498.31;5049630;28;20494;-84
2022/12/03 08:47:46;;;;;;;36.88;15.35;;;;;;;2.52;65.01;100497.44;5031895;28;20071;-85
2022/12/03 08:50:29;;;;;;;34.97;15.77;;;;;;;2.46;64.80;100493.16;5049760;28;20057;-83
2022/12/03 08:53:06;;;;;;;35.03;16.27;;;;;;;2.47;64.90;100498.34;5049657;28;20064;-84
2022/12/03 08:55:35;;;;;;;32.38;14.75;;;;;;;2.46;65.14;100499.25;5049980;28;20064;-84
2022/12/03 08:58:15;;;;;;;33.10;14.45;;;;;;;2.44;65.00;100494.94;5049929;28;20084;-83
2022/12/03 09:00:41;;;;;;;34.85;15.25;;;;;;;2.46;65.15;100500.97;5049842;28;20060;-86
2022/12/03 09:03:14;;;;;;;35.72;15.25;;;;;;;2.44;65.21;100498.38;5050010;28;20417;-82
2022/12/03 09:05:41;;;;;;;;;;;;;;;2.47;65.62;100500.09;5050438;28;20572;-85
2022/12/03 09:08:07;;;;;;;29.75;13.70;;;;;;;2.50;64.82;100496.63;5050047;28;19943;-85
2022/12/03 09:10:34;;;;;;;35.28;16.00;;;;;;;2.48;65.17;100497.47;5050064;28;20131;-86
2022/12/03 09:13:00;;;;;;;36.65;16.40;;;;;;;2.48;65.06;100494.88;5050028;28;20072;-84
2022/12/03 09:15:27;;;;;;;36.65;16.65;;;;;;;2.48;65.39;100492.25;5049917;28;20056;-84
2022/12/03 09:17:53;;;;;;;39.55;16.90;;;;;;;2.51;65.19;100496.59;5032327;28;20049;-85
2022/12/03 09:20:20;;;;;;;38.53;16.90;;;;;;;2.51;64.65;100493.13;5052875;28;20059;-84
2022/12/03 09:22:47;;;;;;;39.35;18.00;;;;;;;2.50;65.02;100497.44;5053853;28;20057;-86
2022/12/03 09:25:13;;;;;;;38.50;17.40;;;;;;;2.50;64.87;100491.41;5053638;28;20049;-85
2022/12/03 09:27:40;;;;;;;45.35;18.33;;;;;;;2.48;64.75;100492.25;5053679;28;20049;-82
2022/12/03 09:30:07;;;;;;;38.50;17.38;;;;;;;2.48;65.44;100494.88;5053617;28;20064;-84
2022/12/03 09:32:33;;;;;;;44.10;18.23;;;;;;;2.48;64.89;100492.25;5035755;28;20551;-85
2022/12/03 09:35:00;;;;;;;37.22;17.50;;;;;;;2.52;65.03;100494.84;5053475;28;20501;-84
2022/12/03 09:37:26;;;;;;;36.28;16.65;;;;;;;2.52;65.36;100492.25;5053588;28;20061;-84
2022/12/03 09:39:53;;;;;;;42.58;18.42;;;;;;;2.53;65.54;100491.34;5053571;28;20056;-85
2022/12/03 09:42:19;;;;;;;38.25;17.75;;;;;;;2.55;65.10;100484.41;5053327;28;20140;-85
2022/12/03 09:44:46;;;;;;;36.33;17.85;;;;;;;2.53;64.80;100483.56;5052852;28;20147;-84
2022/12/03 09:47:13;;;;;;;42.03;19.25;;;;;;;2.54;65.29;100480.94;5035431;28;20139;-81
2022/12/03 09:49:40;;;;;;;40.65;18.75;;;;;;;2.54;64.68;100490.50;5034663;28;20056;-85
2022/12/03 09:52:07;;;;;;;41.20;18.80;;;;;;;2.53;64.73;100489.63;5052440;28;20464;-85
2022/12/03 09:54:34;;;;;;;45.28;19.45;;;;;;;2.54;65.22;100493.09;5035498;28;20068;-85
2022/12/03 09:57:02;;;;;;;46.10;20.67;;;;;;;2.53;65.31;100481.84;5052772;28;20053;-84
2022/12/03 09:59:33;;;;;;;41.03;18.42;;;;;;;2.53;64.81;100489.63;5035219;28;20077;-84
2022/12/03 10:02:00;;;;;;;50.08;20.05;;;;;;;2.55;65.30;100482.66;5027714;28;20057;-82
2022/12/03 10:04:28;;;;;;;46.38;20.42;;;;;;;2.56;65.13;100486.13;5053026;28;20108;-82
2022/12/03 10:06:57;;;;;;;44.30;19.05;;;;;;;2.57;64.97;100487.84;5052916;28;20056;-85
2022/12/03 10:09:26;;;;;;;45.72;20.25;;;;;;;2.57;65.14;100480.03;5053014;28;20267;-85
2022/12/03 10:11:55;;;;;;;48.28;20.00;;;;;;;2.56;65.00;100478.34;5052718;28;20063;-84
2022/12/03 10:14:21;;;;;;;51.35;21.70;;;;;;;2.58;65.28;100471.41;5052912;28;20048;-85
2022/12/03 10:16:48;;;;;;;47.13;20.58;;;;;;;2.58;65.11;100468.78;5052354;28;20053;-85
2022/12/03 10:19:25;;;;;;;48.83;20.80;;;;;;;2.57;64.99;100472.25;5052786;28;20053;-85
2022/12/03 10:21:51;;;;;;;54.25;21.88;;;;;;;2.56;64.61;100463.59;5052674;28;20088;-85
2022/12/03 10:24:24;;;;;;;52.58;21.33;;;;;;;2.55;64.86;100466.22;5052599;28;20061;-85
2022/12/03 10:26:52;;;;;;;;;;;;;;;2.56;64.83;100467.94;5052833;28;20493;-85
2022/12/03 10:29:25;;;;;;;38.70;16.95;;;;;;;2.57;65.04;100462.72;5052444;28;19925;-85
2022/12/03 10:32:10;;;;;;;53.28;22.67;;;;;;;2.55;64.62;100453.22;5051957;28;20085;-85
2022/12/03 10:34:40;;;;;;;49.50;21.45;;;;;;;2.58;64.93;100458.41;5034605;28;20049;-83
2022/12/03 10:37:11;;;;;;;53.13;22.25;;;;;;;2.56;65.22;100458.41;5052123;28;20102;-86
2022/12/03 10:39:57;;;;;;;56.88;22.77;;;;;;;2.54;64.95;100456.72;5052455;28;20053;-85
2022/12/03 10:42:28;;;;;;;48.47;21.58;;;;;;;2.57;65.08;100456.66;5052166;28;20064;-84
2022/12/03 10:45:07;;;;;;;59.20;22.55;;;;;;;2.54;64.67;100449.75;5052244;28;20057;-85
2022/12/03 10:47:33;;;;;;;49.63;20.42;;;;;;;2.57;64.73;100446.25;5052013;28;20187;-83
2022/12/03 10:50:13;;;;;;;56.47;22.35;;;;;;;2.56;64.73;100441.94;5052293;28;20057;-84
2022/12/03 10:52:39;;;;;;;54.78;21.42;;;;;;;2.58;65.03;100446.25;5052081;28;20508;-85
2022/12/03 10:55:10;;;;;;;49.72;22.45;;;;;;;2.58;64.72;100442.81;5050739;28;20057;-83
2022/12/03 10:57:38;;;;;;;57.38;23.52;;;;;;;2.58;64.72;100446.25;5032419;28;20057;-84
2022/12/03 11:00:17;;;;;;;54.78;23.33;;;;;;;2.55;65.03;100438.47;5051067;28;20061;-88
2022/12/03 11:02:46;;;;;;;58.92;23.65;;;;;;;2.54;64.59;100441.13;5034266;28;20053;-83
2022/12/03 11:05:28;;;;;;;62.58;24.08;;;;;;;2.51;64.97;100430.75;5052124;28;20148;-85
2022/12/03 11:07:55;;;;;;;53.70;22.38;;;;;;;2.48;64.65;100426.47;5051657;28;20075;-84
2022/12/03 11:10:23;;;;;;;58.85;23.27;;;;;;;2.48;65.28;100432.50;5051025;28;20103;-85
2022/12/03 11:13:28;;;;;;;55.80;23.02;;;;;;;2.47;65.34;100428.19;5051688;28;20072;-85
2022/12/03 11:15:55;;;;;;;58.35;22.88;;;;;;;2.55;65.28;100427.25;5051299;28;20150;-85
2022/12/03 11:18:37;;;;;;;55.15;23.52;;;;;;;2.54;65.10;100425.53;5051152;28;20053;-85
2022/12/03 11:21:05;;;;;;;64.00;24.67;;;;;;;2.58;64.93;100427.22;5051647;28;20059;-84
2022/12/03 11:23:44;;;;;;;61.70;24.15;;;;;;;2.58;65.01;100427.22;5051507;28;20087;-83
2022/12/03 11:26:18;;;;;;;56.50;23.17;;;;;;;2.60;64.37;100421.09;5051376;28;20060;-85
2022/12/03 11:28:45;;;;;;;55.05;23.33;;;;;;;2.60;64.79;100418.50;5051358;28;20048;-85
2022/12/03 11:31:37;;;;;;;63.15;25.63;;;;;;;2.56;64.49;100415.97;5051231;28;20065;-83
2022/12/03 11:34:19;;;;;;;56.05;24.27;;;;;;;2.54;64.90;100405.56;5051429;28;20226;-85
2022/12/03 11:37:10;;;;;;;54.38;22.58;;;;;;;2.54;64.70;100409.94;5050681;28;20057;-85
2022/12/03 11:39:54;;;;;;;56.10;22.88;;;;;;;2.52;65.04;100406.47;5049423;28;20049;-84
2022/12/03 11:42:24;;;;;;;52.88;21.88;;;;;;;2.53;64.32;100393.47;5050132;28;20053;-84
2022/12/03 11:45:02;;;;;;;56.50;23.48;;;;;;;2.46;64.62;100390.09;5050666;28;20045;-84
2022/12/03 11:47:39;;;;;;;62.28;24.50;;;;;;;2.44;64.67;100383.19;5032817;28;20049;-85
2022/12/03 11:50:23;;;;;;;58.70;23.40;;;;;;;2.42;64.50;100384.94;5050858;28;20053;-84